sensor_id;sensor_type;location;lat;lon;timestamp;P1;durP1;ratioP1;P2;durP2;ratioP2
63690;SDS011;49837;57.280;27.070;2023-09-19T00:00:02;3.5;;;2.3;;
63690;SDS011;49837;57.280;27.070;2023-09-19T00:01:02;3.4;;;2.2;;
63690;SDS011;49837;57.280;27.070;2023-09-19T00:02:03;2.4;;;2.2;;
63690;SDS011;49837;57.280;27.070;2023-09-19T00:03:03;2.8;;;2.1;;
63690;SDS011;49837;57.280;27.070;2023-09-19T00:04:03;2.4;;;2.1;;
63690;SDS011;49837;57.280;27.070;2023-09-19T00:05:04;3.9;;;2.3;;
63690;SDS011;49837;57.280;27.070;2023-09-19T00:06:04;2.4;;;2.1;;
63690;SDS011;49837;57.280;27.070;2023-09-19T00:07:05;2.9;;;2.2;;
63690;SDS011;49837;57.280;27.070;2023-09-19T00:08:05;4.6;;;2.4;;
63690;SDS011;49837;57.280;27.070;2023-09-19T00:09:05;3.2;;;2.2;;
63690;SDS011;49837;57.280;27.070;2023-09-19T00:10:06;2.7;;;2.1;;
63690;SDS011;49837;57.280;27.070;2023-09-19T00:11:06;2.9;;;2.1;;
63690;SDS011;49837;57.280;27.070;2023-09-19T00:12:07;3.7;;;2.3;;
63690;SDS011;49837;57.280;27.070;2023-09-19T00:13:07;2.9;;;2.3;;
63690;SDS011;49837;57.280;27.070;2023-09-19T00:14:08;3.3;;;2.2;;
63690;SDS011;49837;57.280;27.070;2023-09-19T00:15:08;2.9;;;2.3;;
63690;SDS011;49837;57.280;27.070;2023-09-19T00:16:09;3.7;;;2.3;;
63690;SDS011;49837;57.280;27.070;2023-09-19T00:17:09;2.7;;;2.2;;
63690;SDS011;49837;57.280;27.070;2023-09-19T00:18:09;2.9;;;2.3;;
63690;SDS011;49837;57.280;27.070;2023-09-19T00:19:10;3.6;;;2.3;;
63690;SDS011;49837;57.280;27.070;2023-09-19T00:20:11;3.2;;;2.3;;
63690;SDS011;49837;57.280;27.070;2023-09-19T00:21:11;3.5;;;2.3;;
63690;SDS011;49837;57.280;27.070;2023-09-19T00:22:11;3.3;;;2.1;;
63690;SDS011;49837;57.280;27.070;2023-09-19T00:23:12;3.4;;;2.3;;
63690;SDS011;49837;57.280;27.070;2023-09-19T00:24:12;3.5;;;2.3;;
63690;SDS011;49837;57.280;27.070;2023-09-19T00:25:12;3.7;;;2.2;;
63690;SDS011;49837;57.280;27.070;2023-09-19T00:26:13;3.2;;;2.2;;
63690;SDS011;49837;57.280;27.070;2023-09-19T00:27:14;2.8;;;2.3;;
63690;SDS011;49837;57.280;27.070;2023-09-19T00:28:14;2.7;;;2.1;;
63690;SDS011;49837;57.280;27.070;2023-09-19T00:29:15;4.0;;;2.3;;
63690;SDS011;49837;57.280;27.070;2023-09-19T00:30:15;4.7;;;2.3;;
63690;SDS011;49837;57.280;27.070;2023-09-19T00:31:16;2.8;;;2.3;;
63690;SDS011;49837;57.280;27.070;2023-09-19T00:32:16;3.4;;;2.3;;
63690;SDS011;49837;57.280;27.070;2023-09-19T00:33:16;4.5;;;2.5;;
63690;SDS011;49837;57.280;27.070;2023-09-19T00:34:17;3.2;;;2.2;;
63690;SDS011;49837;57.280;27.070;2023-09-19T00:35:18;2.9;;;2.3;;
63690;SDS011;49837;57.280;27.070;2023-09-19T00:36:18;3.0;;;2.3;;
63690;SDS011;49837;57.280;27.070;2023-09-19T00:37:19;3.2;;;2.3;;
63690;SDS011;49837;57.280;27.070;2023-09-19T00:38:20;2.7;;;2.5;;
63690;SDS011;49837;57.280;27.070;2023-09-19T00:39:20;5.4;;;2.5;;
63690;SDS011;49837;57.280;27.070;2023-09-19T00:40:20;3.0;;;2.3;;
63690;SDS011;49837;57.280;27.070;2023-09-19T00:41:20;4.2;;;2.5;;
63690;SDS011;49837;57.280;27.070;2023-09-19T00:42:21;2.5;;;2.3;;
63690;SDS011;49837;57.280;27.070;2023-09-19T00:43:21;3.9;;;2.7;;
63690;SDS011;49837;57.280;27.070;2023-09-19T00:44:22;3.6;;;2.5;;
63690;SDS011;49837;57.280;27.070;2023-09-19T00:45:22;3.7;;;2.4;;
63690;SDS011;49837;57.280;27.070;2023-09-19T00:46:23;3.3;;;2.7;;
63690;SDS011;49837;57.280;27.070;2023-09-19T00:47:23;4.2;;;2.6;;
63690;SDS011;49837;57.280;27.070;2023-09-19T00:48:24;5.1;;;2.6;;
63690;SDS011;49837;57.280;27.070;2023-09-19T00:49:24;2.7;;;2.3;;
63690;SDS011;49837;57.280;27.070;2023-09-19T00:50:25;4.0;;;2.6;;
63690;SDS011;49837;57.280;27.070;2023-09-19T00:51:25;3.5;;;2.5;;
63690;SDS011;49837;57.280;27.070;2023-09-19T00:52:25;3.8;;;2.4;;
63690;SDS011;49837;57.280;27.070;2023-09-19T00:53:26;3.0;;;2.3;;
63690;SDS011;49837;57.280;27.070;2023-09-19T00:54:26;4.9;;;2.7;;
63690;SDS011;49837;57.280;27.070;2023-09-19T00:55:27;3.7;;;2.7;;
63690;SDS011;49837;57.280;27.070;2023-09-19T00:56:27;3.2;;;2.6;;
63690;SDS011;49837;57.280;27.070;2023-09-19T00:57:27;3.1;;;2.5;;
63690;SDS011;49837;57.280;27.070;2023-09-19T00:58:28;3.2;;;2.5;;
63690;SDS011;49837;57.280;27.070;2023-09-19T00:59:28;2.7;;;2.4;;
63690;SDS011;49837;57.280;27.070;2023-09-19T01:00:29;3.5;;;2.3;;
63690;SDS011;49837;57.280;27.070;2023-09-19T01:01:29;3.4;;;2.5;;
63690;SDS011;49837;57.280;27.070;2023-09-19T01:02:30;3.8;;;2.6;;
63690;SDS011;49837;57.280;27.070;2023-09-19T01:03:30;4.3;;;2.6;;
63690;SDS011;49837;57.280;27.070;2023-09-19T01:04:30;4.3;;;2.7;;
63690;SDS011;49837;57.280;27.070;2023-09-19T01:05:31;3.5;;;2.6;;
63690;SDS011;49837;57.280;27.070;2023-09-19T01:06:31;2.8;;;2.3;;
63690;SDS011;49837;57.280;27.070;2023-09-19T01:07:32;2.5;;;2.3;;
63690;SDS011;49837;57.280;27.070;2023-09-19T01:08:32;3.5;;;2.6;;
63690;SDS011;49837;57.280;27.070;2023-09-19T01:09:33;3.2;;;2.5;;
63690;SDS011;49837;57.280;27.070;2023-09-19T01:10:33;3.0;;;2.2;;
63690;SDS011;49837;57.280;27.070;2023-09-19T01:11:35;3.8;;;2.6;;
63690;SDS011;49837;57.280;27.070;2023-09-19T01:12:59;3.3;;;2.3;;
63690;SDS011;49837;57.280;27.070;2023-09-19T01:13:44;2.6;;;2.4;;
63690;SDS011;49837;57.280;27.070;2023-09-19T01:14:42;3.0;;;2.4;;
63690;SDS011;49837;57.280;27.070;2023-09-19T01:15:51;2.8;;;2.4;;
63690;SDS011;49837;57.280;27.070;2023-09-19T01:16:50;2.8;;;2.4;;
63690;SDS011;49837;57.280;27.070;2023-09-19T01:17:57;3.4;;;2.6;;
63690;SDS011;49837;57.280;27.070;2023-09-19T01:19:02;3.7;;;2.5;;
63690;SDS011;49837;57.280;27.070;2023-09-19T01:19:59;3.5;;;2.5;;
63690;SDS011;49837;57.280;27.070;2023-09-19T01:23:05;3.3;;;2.6;;
63690;SDS011;49837;57.280;27.070;2023-09-19T01:26:07;2.6;;;2.4;;
63690;SDS011;49837;57.280;27.070;2023-09-19T01:27:17;3.0;;;2.3;;
63690;SDS011;49837;57.280;27.070;2023-09-19T01:30:11;2.8;;;2.5;;
63690;SDS011;49837;57.280;27.070;2023-09-19T01:31:11;4.3;;;2.6;;
63690;SDS011;49837;57.280;27.070;2023-09-19T01:32:11;5.0;;;2.8;;
63690;SDS011;49837;57.280;27.070;2023-09-19T01:33:13;5.1;;;3.1;;
63690;SDS011;49837;57.280;27.070;2023-09-19T01:34:13;3.8;;;2.6;;
63690;SDS011;49837;57.280;27.070;2023-09-19T01:35:14;4.3;;;2.7;;
63690;SDS011;49837;57.280;27.070;2023-09-19T01:36:14;4.6;;;2.5;;
63690;SDS011;49837;57.280;27.070;2023-09-19T01:37:15;3.9;;;2.5;;
63690;SDS011;49837;57.280;27.070;2023-09-19T01:38:15;3.6;;;2.5;;
63690;SDS011;49837;57.280;27.070;2023-09-19T01:39:15;3.5;;;2.6;;
63690;SDS011;49837;57.280;27.070;2023-09-19T01:40:17;5.7;;;3.0;;
63690;SDS011;49837;57.280;27.070;2023-09-19T01:41:26;3.2;;;2.7;;
63690;SDS011;49837;57.280;27.070;2023-09-19T01:43:26;4.2;;;2.6;;
63690;SDS011;49837;57.280;27.070;2023-09-19T01:46:30;5.0;;;2.6;;
63690;SDS011;49837;57.280;27.070;2023-09-19T01:48:38;4.1;;;2.7;;
63690;SDS011;49837;57.280;27.070;2023-09-19T01:49:37;3.4;;;2.6;;
63690;SDS011;49837;57.280;27.070;2023-09-19T01:50:43;3.6;;;2.8;;
63690;SDS011;49837;57.280;27.070;2023-09-19T01:52:05;3.6;;;2.7;;
63690;SDS011;49837;57.280;27.070;2023-09-19T01:52:46;3.4;;;2.8;;
63690;SDS011;49837;57.280;27.070;2023-09-19T01:54:08;4.1;;;2.7;;
63690;SDS011;49837;57.280;27.070;2023-09-19T01:54:56;3.5;;;2.7;;
63690;SDS011;49837;57.280;27.070;2023-09-19T01:55:55;3.2;;;2.7;;
63690;SDS011;49837;57.280;27.070;2023-09-19T01:57:04;3.6;;;2.8;;
63690;SDS011;49837;57.280;27.070;2023-09-19T01:58:01;3.3;;;2.9;;
63690;SDS011;49837;57.280;27.070;2023-09-19T01:58:59;4.3;;;2.7;;
63690;SDS011;49837;57.280;27.070;2023-09-19T02:00:05;3.6;;;2.8;;
63690;SDS011;49837;57.280;27.070;2023-09-19T02:01:04;3.5;;;2.7;;
63690;SDS011;49837;57.280;27.070;2023-09-19T02:02:05;3.6;;;2.7;;
63690;SDS011;49837;57.280;27.070;2023-09-19T02:03:05;4.4;;;2.9;;
63690;SDS011;49837;57.280;27.070;2023-09-19T02:04:06;3.1;;;2.5;;
63690;SDS011;49837;57.280;27.070;2023-09-19T02:05:06;3.0;;;2.7;;
63690;SDS011;49837;57.280;27.070;2023-09-19T02:06:07;3.4;;;2.4;;
63690;SDS011;49837;57.280;27.070;2023-09-19T02:07:07;3.4;;;2.3;;
63690;SDS011;49837;57.280;27.070;2023-09-19T02:08:07;5.1;;;2.5;;
63690;SDS011;49837;57.280;27.070;2023-09-19T02:09:08;4.4;;;2.2;;
63690;SDS011;49837;57.280;27.070;2023-09-19T02:10:08;3.4;;;2.3;;
63690;SDS011;49837;57.280;27.070;2023-09-19T02:11:09;4.3;;;2.8;;
63690;SDS011;49837;57.280;27.070;2023-09-19T02:12:09;3.9;;;2.3;;
63690;SDS011;49837;57.280;27.070;2023-09-19T02:13:10;3.6;;;2.6;;
63690;SDS011;49837;57.280;27.070;2023-09-19T02:14:10;2.8;;;2.5;;
63690;SDS011;49837;57.280;27.070;2023-09-19T02:15:11;4.4;;;2.5;;
63690;SDS011;49837;57.280;27.070;2023-09-19T02:16:11;3.5;;;2.6;;
63690;SDS011;49837;57.280;27.070;2023-09-19T02:17:11;3.4;;;2.6;;
63690;SDS011;49837;57.280;27.070;2023-09-19T02:18:12;4.1;;;2.9;;
63690;SDS011;49837;57.280;27.070;2023-09-19T02:19:12;3.4;;;2.6;;
63690;SDS011;49837;57.280;27.070;2023-09-19T02:20:13;4.9;;;2.7;;
63690;SDS011;49837;57.280;27.070;2023-09-19T02:21:13;4.8;;;2.6;;
63690;SDS011;49837;57.280;27.070;2023-09-19T02:22:14;4.3;;;2.5;;
63690;SDS011;49837;57.280;27.070;2023-09-19T02:23:14;3.4;;;2.7;;
63690;SDS011;49837;57.280;27.070;2023-09-19T02:24:15;6.5;;;2.5;;
63690;SDS011;49837;57.280;27.070;2023-09-19T02:25:15;3.3;;;2.5;;
63690;SDS011;49837;57.280;27.070;2023-09-19T02:26:15;4.1;;;2.6;;
63690;SDS011;49837;57.280;27.070;2023-09-19T02:27:16;4.4;;;2.5;;
63690;SDS011;49837;57.280;27.070;2023-09-19T02:28:16;3.2;;;2.5;;
63690;SDS011;49837;57.280;27.070;2023-09-19T02:29:17;3.3;;;2.4;;
63690;SDS011;49837;57.280;27.070;2023-09-19T02:30:17;3.2;;;2.5;;
63690;SDS011;49837;57.280;27.070;2023-09-19T02:31:17;4.5;;;3.0;;
63690;SDS011;49837;57.280;27.070;2023-09-19T02:32:18;3.3;;;2.9;;
63690;SDS011;49837;57.280;27.070;2023-09-19T02:33:18;4.2;;;2.8;;
63690;SDS011;49837;57.280;27.070;2023-09-19T02:34:19;3.7;;;2.8;;
63690;SDS011;49837;57.280;27.070;2023-09-19T02:35:19;3.6;;;2.8;;
63690;SDS011;49837;57.280;27.070;2023-09-19T02:36:20;4.6;;;2.7;;
63690;SDS011;49837;57.280;27.070;2023-09-19T02:37:20;4.8;;;2.8;;
63690;SDS011;49837;57.280;27.070;2023-09-19T02:38:20;4.4;;;2.7;;
63690;SDS011;49837;57.280;27.070;2023-09-19T02:39:21;3.3;;;2.7;;
63690;SDS011;49837;57.280;27.070;2023-09-19T02:40:21;3.8;;;2.8;;
63690;SDS011;49837;57.280;27.070;2023-09-19T02:41:22;4.9;;;2.9;;
63690;SDS011;49837;57.280;27.070;2023-09-19T02:42:22;4.6;;;3.0;;
63690;SDS011;49837;57.280;27.070;2023-09-19T02:43:23;4.5;;;2.8;;
63690;SDS011;49837;57.280;27.070;2023-09-19T02:44:23;3.9;;;2.9;;
63690;SDS011;49837;57.280;27.070;2023-09-19T02:45:23;3.3;;;2.7;;
63690;SDS011;49837;57.280;27.070;2023-09-19T02:46:24;4.9;;;3.0;;
63690;SDS011;49837;57.280;27.070;2023-09-19T02:47:24;3.7;;;2.5;;
63690;SDS011;49837;57.280;27.070;2023-09-19T02:48:25;4.5;;;2.8;;
63690;SDS011;49837;57.280;27.070;2023-09-19T02:49:25;3.7;;;2.8;;
63690;SDS011;49837;57.280;27.070;2023-09-19T02:50:26;3.8;;;2.9;;
63690;SDS011;49837;57.280;27.070;2023-09-19T02:51:26;5.5;;;3.5;;
63690;SDS011;49837;57.280;27.070;2023-09-19T02:52:26;10.1;;;5.0;;
63690;SDS011;49837;57.280;27.070;2023-09-19T02:53:27;6.2;;;4.1;;
63690;SDS011;49837;57.280;27.070;2023-09-19T02:54:27;7.5;;;4.8;;
63690;SDS011;49837;57.280;27.070;2023-09-19T02:55:28;11.3;;;5.7;;
63690;SDS011;49837;57.280;27.070;2023-09-19T02:56:28;10.7;;;5.8;;
63690;SDS011;49837;57.280;27.070;2023-09-19T02:57:29;11.5;;;5.4;;
63690;SDS011;49837;57.280;27.070;2023-09-19T02:58:29;12.6;;;6.2;;
63690;SDS011;49837;57.280;27.070;2023-09-19T02:59:31;11.8;;;6.0;;
63690;SDS011;49837;57.280;27.070;2023-09-19T03:00:30;10.7;;;5.5;;
63690;SDS011;49837;57.280;27.070;2023-09-19T03:01:30;9.8;;;5.6;;
63690;SDS011;49837;57.280;27.070;2023-09-19T03:02:31;10.1;;;5.3;;
63690;SDS011;49837;57.280;27.070;2023-09-19T03:03:31;8.8;;;5.6;;
63690;SDS011;49837;57.280;27.070;2023-09-19T03:04:32;8.0;;;5.1;;
63690;SDS011;49837;57.280;27.070;2023-09-19T03:05:32;8.6;;;5.3;;
63690;SDS011;49837;57.280;27.070;2023-09-19T03:06:33;8.5;;;5.0;;
63690;SDS011;49837;57.280;27.070;2023-09-19T03:07:33;10.1;;;5.3;;
63690;SDS011;49837;57.280;27.070;2023-09-19T03:08:33;6.9;;;4.6;;
63690;SDS011;49837;57.280;27.070;2023-09-19T03:09:34;7.3;;;4.5;;
63690;SDS011;49837;57.280;27.070;2023-09-19T03:10:34;8.3;;;5.0;;
63690;SDS011;49837;57.280;27.070;2023-09-19T03:11:35;5.9;;;4.6;;
63690;SDS011;49837;57.280;27.070;2023-09-19T03:12:35;6.0;;;4.5;;
63690;SDS011;49837;57.280;27.070;2023-09-19T03:13:36;6.0;;;4.3;;
63690;SDS011;49837;57.280;27.070;2023-09-19T03:14:36;5.8;;;4.6;;
63690;SDS011;49837;57.280;27.070;2023-09-19T03:15:36;6.0;;;4.6;;
63690;SDS011;49837;57.280;27.070;2023-09-19T03:16:38;7.2;;;4.8;;
63690;SDS011;49837;57.280;27.070;2023-09-19T03:17:40;8.6;;;4.5;;
63690;SDS011;49837;57.280;27.070;2023-09-19T03:18:40;5.4;;;4.1;;
63690;SDS011;49837;57.280;27.070;2023-09-19T03:19:40;5.8;;;4.3;;
63690;SDS011;49837;57.280;27.070;2023-09-19T03:20:41;5.7;;;4.4;;
63690;SDS011;49837;57.280;27.070;2023-09-19T03:21:41;6.3;;;3.8;;
63690;SDS011;49837;57.280;27.070;2023-09-19T03:22:42;5.8;;;4.1;;
63690;SDS011;49837;57.280;27.070;2023-09-19T03:23:43;5.6;;;3.4;;
63690;SDS011;49837;57.280;27.070;2023-09-19T03:24:44;4.7;;;3.4;;
63690;SDS011;49837;57.280;27.070;2023-09-19T03:25:44;5.7;;;3.6;;
63690;SDS011;49837;57.280;27.070;2023-09-19T03:26:44;4.9;;;4.0;;
63690;SDS011;49837;57.280;27.070;2023-09-19T03:27:44;4.3;;;3.5;;
63690;SDS011;49837;57.280;27.070;2023-09-19T03:28:45;4.2;;;3.6;;
63690;SDS011;49837;57.280;27.070;2023-09-19T03:29:46;6.0;;;3.7;;
63690;SDS011;49837;57.280;27.070;2023-09-19T03:30:46;5.4;;;3.7;;
63690;SDS011;49837;57.280;27.070;2023-09-19T03:31:46;5.6;;;3.6;;
63690;SDS011;49837;57.280;27.070;2023-09-19T03:32:47;4.9;;;3.3;;
63690;SDS011;49837;57.280;27.070;2023-09-19T03:33:47;4.6;;;3.1;;
63690;SDS011;49837;57.280;27.070;2023-09-19T03:34:48;5.7;;;3.6;;
63690;SDS011;49837;57.280;27.070;2023-09-19T03:35:51;5.4;;;3.6;;
63690;SDS011;49837;57.280;27.070;2023-09-19T03:36:49;4.9;;;3.7;;
63690;SDS011;49837;57.280;27.070;2023-09-19T03:37:50;6.5;;;3.6;;
63690;SDS011;49837;57.280;27.070;2023-09-19T03:38:50;4.4;;;3.3;;
63690;SDS011;49837;57.280;27.070;2023-09-19T03:39:51;4.3;;;3.2;;
63690;SDS011;49837;57.280;27.070;2023-09-19T03:40:51;7.5;;;3.6;;
63690;SDS011;49837;57.280;27.070;2023-09-19T03:41:52;5.5;;;3.4;;
63690;SDS011;49837;57.280;27.070;2023-09-19T03:42:52;5.8;;;3.7;;
63690;SDS011;49837;57.280;27.070;2023-09-19T03:43:52;11.9;;;4.0;;
63690;SDS011;49837;57.280;27.070;2023-09-19T03:44:53;4.3;;;3.3;;
63690;SDS011;49837;57.280;27.070;2023-09-19T03:45:53;5.8;;;3.7;;
63690;SDS011;49837;57.280;27.070;2023-09-19T03:46:54;4.8;;;3.4;;
63690;SDS011;49837;57.280;27.070;2023-09-19T03:47:54;6.8;;;4.0;;
63690;SDS011;49837;57.280;27.070;2023-09-19T03:48:55;5.2;;;3.8;;
63690;SDS011;49837;57.280;27.070;2023-09-19T03:49:55;5.1;;;4.0;;
63690;SDS011;49837;57.280;27.070;2023-09-19T03:50:55;7.9;;;4.0;;
63690;SDS011;49837;57.280;27.070;2023-09-19T03:51:56;5.7;;;3.9;;
63690;SDS011;49837;57.280;27.070;2023-09-19T03:52:56;4.9;;;3.7;;
63690;SDS011;49837;57.280;27.070;2023-09-19T03:53:57;5.4;;;3.5;;
63690;SDS011;49837;57.280;27.070;2023-09-19T03:54:57;6.1;;;3.9;;
63690;SDS011;49837;57.280;27.070;2023-09-19T03:55:58;5.5;;;3.8;;
63690;SDS011;49837;57.280;27.070;2023-09-19T03:56:58;6.2;;;3.9;;
63690;SDS011;49837;57.280;27.070;2023-09-19T03:57:58;5.6;;;4.1;;
63690;SDS011;49837;57.280;27.070;2023-09-19T03:58:59;5.7;;;3.9;;
63690;SDS011;49837;57.280;27.070;2023-09-19T03:59:59;6.1;;;3.8;;
63690;SDS011;49837;57.280;27.070;2023-09-19T04:01:00;7.4;;;4.0;;
63690;SDS011;49837;57.280;27.070;2023-09-19T04:02:00;4.7;;;3.8;;
63690;SDS011;49837;57.280;27.070;2023-09-19T04:03:01;6.3;;;3.7;;
63690;SDS011;49837;57.280;27.070;2023-09-19T04:04:02;5.0;;;3.7;;
63690;SDS011;49837;57.280;27.070;2023-09-19T04:05:02;4.9;;;3.8;;
63690;SDS011;49837;57.280;27.070;2023-09-19T04:06:03;6.1;;;3.7;;
63690;SDS011;49837;57.280;27.070;2023-09-19T04:07:03;4.7;;;3.6;;
63690;SDS011;49837;57.280;27.070;2023-09-19T04:08:04;5.3;;;3.6;;
63690;SDS011;49837;57.280;27.070;2023-09-19T04:09:04;6.2;;;3.5;;
63690;SDS011;49837;57.280;27.070;2023-09-19T04:10:05;7.0;;;5.1;;
63690;SDS011;49837;57.280;27.070;2023-09-19T04:11:05;6.1;;;5.2;;
63690;SDS011;49837;57.280;27.070;2023-09-19T04:12:06;6.6;;;4.5;;
63690;SDS011;49837;57.280;27.070;2023-09-19T04:13:06;6.0;;;4.6;;
63690;SDS011;49837;57.280;27.070;2023-09-19T04:14:06;6.0;;;4.0;;
63690;SDS011;49837;57.280;27.070;2023-09-19T04:15:07;5.0;;;3.9;;
63690;SDS011;49837;57.280;27.070;2023-09-19T04:16:07;5.4;;;4.3;;
63690;SDS011;49837;57.280;27.070;2023-09-19T04:17:07;5.0;;;3.9;;
63690;SDS011;49837;57.280;27.070;2023-09-19T04:18:08;6.7;;;4.3;;
63690;SDS011;49837;57.280;27.070;2023-09-19T04:19:08;6.4;;;5.6;;
63690;SDS011;49837;57.280;27.070;2023-09-19T04:20:09;5.7;;;4.3;;
63690;SDS011;49837;57.280;27.070;2023-09-19T04:21:09;6.4;;;4.0;;
63690;SDS011;49837;57.280;27.070;2023-09-19T04:22:10;6.0;;;4.9;;
63690;SDS011;49837;57.280;27.070;2023-09-19T04:23:10;5.9;;;4.7;;
63690;SDS011;49837;57.280;27.070;2023-09-19T04:24:11;5.8;;;4.8;;
63690;SDS011;49837;57.280;27.070;2023-09-19T04:25:11;5.7;;;4.8;;
63690;SDS011;49837;57.280;27.070;2023-09-19T04:26:11;6.4;;;5.0;;
63690;SDS011;49837;57.280;27.070;2023-09-19T04:27:12;6.4;;;5.0;;
63690;SDS011;49837;57.280;27.070;2023-09-19T04:28:12;6.2;;;4.8;;
63690;SDS011;49837;57.280;27.070;2023-09-19T04:29:13;7.5;;;5.6;;
63690;SDS011;49837;57.280;27.070;2023-09-19T04:30:13;8.0;;;6.1;;
63690;SDS011;49837;57.280;27.070;2023-09-19T04:31:14;8.8;;;5.9;;
63690;SDS011;49837;57.280;27.070;2023-09-19T04:32:14;7.3;;;5.8;;
63690;SDS011;49837;57.280;27.070;2023-09-19T04:33:15;8.1;;;6.3;;
63690;SDS011;49837;57.280;27.070;2023-09-19T04:34:15;9.6;;;6.6;;
63690;SDS011;49837;57.280;27.070;2023-09-19T04:35:15;8.4;;;5.5;;
63690;SDS011;49837;57.280;27.070;2023-09-19T04:36:16;7.3;;;5.3;;
63690;SDS011;49837;57.280;27.070;2023-09-19T04:37:16;6.9;;;5.4;;
63690;SDS011;49837;57.280;27.070;2023-09-19T04:38:19;9.5;;;6.6;;
63690;SDS011;49837;57.280;27.070;2023-09-19T04:39:17;8.5;;;5.9;;
63690;SDS011;49837;57.280;27.070;2023-09-19T04:40:18;7.9;;;5.8;;
63690;SDS011;49837;57.280;27.070;2023-09-19T04:41:18;7.4;;;6.0;;
63690;SDS011;49837;57.280;27.070;2023-09-19T04:42:18;7.8;;;6.2;;
63690;SDS011;49837;57.280;27.070;2023-09-19T04:43:19;6.7;;;5.0;;
63690;SDS011;49837;57.280;27.070;2023-09-19T04:44:19;8.2;;;6.1;;
63690;SDS011;49837;57.280;27.070;2023-09-19T04:45:20;7.7;;;5.5;;
63690;SDS011;49837;57.280;27.070;2023-09-19T04:46:20;7.4;;;5.8;;
63690;SDS011;49837;57.280;27.070;2023-09-19T04:47:21;7.6;;;5.9;;
63690;SDS011;49837;57.280;27.070;2023-09-19T04:48:22;7.5;;;6.2;;
63690;SDS011;49837;57.280;27.070;2023-09-19T04:49:22;8.4;;;5.9;;
63690;SDS011;49837;57.280;27.070;2023-09-19T04:50:22;8.5;;;6.3;;
63690;SDS011;49837;57.280;27.070;2023-09-19T04:51:22;7.4;;;6.2;;
63690;SDS011;49837;57.280;27.070;2023-09-19T04:52:23;8.0;;;5.8;;
63690;SDS011;49837;57.280;27.070;2023-09-19T04:53:23;7.9;;;5.8;;
63690;SDS011;49837;57.280;27.070;2023-09-19T04:54:24;8.1;;;6.2;;
63690;SDS011;49837;57.280;27.070;2023-09-19T04:55:24;14.7;;;13.2;;
63690;SDS011;49837;57.280;27.070;2023-09-19T04:56:25;7.8;;;6.2;;
63690;SDS011;49837;57.280;27.070;2023-09-19T04:57:25;8.6;;;7.7;;
63690;SDS011;49837;57.280;27.070;2023-09-19T04:58:25;8.2;;;6.4;;
63690;SDS011;49837;57.280;27.070;2023-09-19T04:59:26;8.7;;;6.1;;
63690;SDS011;49837;57.280;27.070;2023-09-19T05:00:26;7.6;;;5.0;;
63690;SDS011;49837;57.280;27.070;2023-09-19T05:01:27;8.9;;;5.4;;
63690;SDS011;49837;57.280;27.070;2023-09-19T05:02:29;7.0;;;5.1;;
63690;SDS011;49837;57.280;27.070;2023-09-19T05:03:28;6.7;;;4.9;;
63690;SDS011;49837;57.280;27.070;2023-09-19T05:04:28;5.4;;;4.3;;
63690;SDS011;49837;57.280;27.070;2023-09-19T05:05:29;5.0;;;4.2;;
63690;SDS011;49837;57.280;27.070;2023-09-19T05:06:30;6.1;;;4.1;;
63690;SDS011;49837;57.280;27.070;2023-09-19T05:07:30;6.5;;;4.0;;
63690;SDS011;49837;57.280;27.070;2023-09-19T05:08:30;5.5;;;4.4;;
63690;SDS011;49837;57.280;27.070;2023-09-19T05:09:31;5.9;;;4.1;;
63690;SDS011;49837;57.280;27.070;2023-09-19T05:10:32;5.4;;;3.9;;
63690;SDS011;49837;57.280;27.070;2023-09-19T05:11:32;5.8;;;4.2;;
63690;SDS011;49837;57.280;27.070;2023-09-19T05:12:33;7.7;;;4.6;;
63690;SDS011;49837;57.280;27.070;2023-09-19T05:13:33;5.7;;;4.1;;
63690;SDS011;49837;57.280;27.070;2023-09-19T05:14:33;6.8;;;4.1;;
63690;SDS011;49837;57.280;27.070;2023-09-19T05:15:34;6.5;;;4.2;;
63690;SDS011;49837;57.280;27.070;2023-09-19T05:16:34;7.2;;;4.4;;
63690;SDS011;49837;57.280;27.070;2023-09-19T05:17:35;6.4;;;4.7;;
63690;SDS011;49837;57.280;27.070;2023-09-19T05:18:35;5.8;;;4.1;;
63690;SDS011;49837;57.280;27.070;2023-09-19T05:19:36;6.5;;;4.6;;
63690;SDS011;49837;57.280;27.070;2023-09-19T05:20:36;6.9;;;4.5;;
63690;SDS011;49837;57.280;27.070;2023-09-19T05:21:36;5.3;;;4.3;;
63690;SDS011;49837;57.280;27.070;2023-09-19T05:22:37;5.6;;;4.3;;
63690;SDS011;49837;57.280;27.070;2023-09-19T05:23:37;5.9;;;3.9;;
63690;SDS011;49837;57.280;27.070;2023-09-19T05:24:38;5.8;;;4.0;;
63690;SDS011;49837;57.280;27.070;2023-09-19T05:25:39;6.1;;;4.0;;
63690;SDS011;49837;57.280;27.070;2023-09-19T05:26:39;6.6;;;4.3;;
63690;SDS011;49837;57.280;27.070;2023-09-19T05:27:40;6.0;;;4.4;;
63690;SDS011;49837;57.280;27.070;2023-09-19T05:28:40;6.6;;;4.6;;
63690;SDS011;49837;57.280;27.070;2023-09-19T05:29:41;5.5;;;4.4;;
63690;SDS011;49837;57.280;27.070;2023-09-19T05:30:41;7.8;;;4.2;;
63690;SDS011;49837;57.280;27.070;2023-09-19T05:31:41;7.3;;;4.2;;
63690;SDS011;49837;57.280;27.070;2023-09-19T05:32:42;5.9;;;4.4;;
63690;SDS011;49837;57.280;27.070;2023-09-19T05:33:43;5.4;;;4.2;;
63690;SDS011;49837;57.280;27.070;2023-09-19T05:34:43;6.7;;;4.4;;
63690;SDS011;49837;57.280;27.070;2023-09-19T05:35:44;6.6;;;4.5;;
63690;SDS011;49837;57.280;27.070;2023-09-19T05:36:44;6.0;;;4.6;;
63690;SDS011;49837;57.280;27.070;2023-09-19T05:37:45;6.5;;;4.5;;
63690;SDS011;49837;57.280;27.070;2023-09-19T05:38:45;5.6;;;4.5;;
63690;SDS011;49837;57.280;27.070;2023-09-19T05:39:46;6.8;;;4.9;;
63690;SDS011;49837;57.280;27.070;2023-09-19T05:40:46;7.4;;;4.5;;
63690;SDS011;49837;57.280;27.070;2023-09-19T05:41:47;6.5;;;5.0;;
63690;SDS011;49837;57.280;27.070;2023-09-19T05:42:47;7.4;;;4.7;;
63690;SDS011;49837;57.280;27.070;2023-09-19T05:43:49;6.5;;;5.2;;
63690;SDS011;49837;57.280;27.070;2023-09-19T05:44:48;5.7;;;4.7;;
63690;SDS011;49837;57.280;27.070;2023-09-19T05:45:48;8.3;;;4.9;;
63690;SDS011;49837;57.280;27.070;2023-09-19T05:46:49;6.0;;;4.9;;
63690;SDS011;49837;57.280;27.070;2023-09-19T05:47:49;6.6;;;5.0;;
63690;SDS011;49837;57.280;27.070;2023-09-19T05:48:50;5.9;;;4.8;;
63690;SDS011;49837;57.280;27.070;2023-09-19T05:49:50;7.3;;;4.9;;
63690;SDS011;49837;57.280;27.070;2023-09-19T05:50:51;7.3;;;5.4;;
63690;SDS011;49837;57.280;27.070;2023-09-19T05:51:51;7.0;;;5.5;;
63690;SDS011;49837;57.280;27.070;2023-09-19T05:52:52;6.7;;;4.8;;
63690;SDS011;49837;57.280;27.070;2023-09-19T05:53:52;6.0;;;5.0;;
63690;SDS011;49837;57.280;27.070;2023-09-19T05:54:52;7.0;;;5.2;;
63690;SDS011;49837;57.280;27.070;2023-09-19T05:55:53;6.2;;;5.0;;
63690;SDS011;49837;57.280;27.070;2023-09-19T05:56:53;7.1;;;5.0;;
63690;SDS011;49837;57.280;27.070;2023-09-19T05:57:54;6.0;;;4.9;;
63690;SDS011;49837;57.280;27.070;2023-09-19T05:58:54;5.6;;;4.9;;
63690;SDS011;49837;57.280;27.070;2023-09-19T05:59:55;7.2;;;4.8;;
63690;SDS011;49837;57.280;27.070;2023-09-19T06:00:55;8.7;;;5.2;;
63690;SDS011;49837;57.280;27.070;2023-09-19T06:01:56;8.4;;;4.8;;
63690;SDS011;49837;57.280;27.070;2023-09-19T06:02:57;6.4;;;5.0;;
63690;SDS011;49837;57.280;27.070;2023-09-19T06:03:57;6.1;;;5.1;;
63690;SDS011;49837;57.280;27.070;2023-09-19T06:04:57;7.8;;;5.1;;
63690;SDS011;49837;57.280;27.070;2023-09-19T06:05:57;7.7;;;4.9;;
63690;SDS011;49837;57.280;27.070;2023-09-19T06:06:58;6.5;;;4.7;;
63690;SDS011;49837;57.280;27.070;2023-09-19T06:07:58;6.3;;;4.9;;
63690;SDS011;49837;57.280;27.070;2023-09-19T06:08:59;6.6;;;4.9;;
63690;SDS011;49837;57.280;27.070;2023-09-19T06:09:59;8.6;;;4.7;;
63690;SDS011;49837;57.280;27.070;2023-09-19T06:11:00;10.7;;;4.7;;
63690;SDS011;49837;57.280;27.070;2023-09-19T06:12:00;9.0;;;5.0;;
63690;SDS011;49837;57.280;27.070;2023-09-19T06:13:04;7.8;;;5.0;;
63690;SDS011;49837;57.280;27.070;2023-09-19T06:14:02;6.9;;;4.9;;
63690;SDS011;49837;57.280;27.070;2023-09-19T06:15:02;6.0;;;4.5;;
63690;SDS011;49837;57.280;27.070;2023-09-19T06:16:02;5.4;;;4.6;;
63690;SDS011;49837;57.280;27.070;2023-09-19T06:17:03;6.0;;;4.7;;
63690;SDS011;49837;57.280;27.070;2023-09-19T06:18:03;6.4;;;5.0;;
63690;SDS011;49837;57.280;27.070;2023-09-19T06:19:04;5.2;;;4.5;;
63690;SDS011;49837;57.280;27.070;2023-09-19T06:20:05;5.7;;;4.7;;